createdAt,value
2023-05-05T00:02:04.748Z,16.33
2023-05-05T00:07:04.673Z,14.38
2023-05-05T00:12:05.893Z,14.32
2023-05-05T00:17:07.807Z,14.20
2023-05-05T00:22:07.096Z,13.63
2023-05-05T00:27:08.190Z,13.85
2023-05-05T00:32:07.266Z,14.18
2023-05-05T00:37:06.457Z,12.65
2023-05-05T00:42:06.999Z,13.55
2023-05-05T00:47:10.895Z,13.65
2023-05-05T00:52:35.347Z,12.23
2023-05-05T00:57:36.016Z,13.43
2023-05-05T01:02:35.681Z,12.05
2023-05-05T01:07:47.140Z,13.27
2023-05-05T01:13:06.719Z,12.95
2023-05-05T01:18:27.914Z,12.15
2023-05-05T01:29:14.112Z,12.95
2023-05-05T01:34:26.209Z,10.93
2023-05-05T01:39:32.299Z,11.93
2023-05-05T01:44:38.013Z,11.88
2023-05-05T01:49:37.708Z,11.73
2023-05-05T01:54:50.181Z,11.15
2023-05-05T02:00:06.269Z,11.90
2023-05-05T02:05:23.094Z,11.45
2023-05-05T02:10:25.756Z,11.32
2023-05-05T02:15:33.769Z,11.48
2023-05-05T02:20:43.147Z,13.18
2023-05-05T02:25:45.846Z,13.80
2023-05-05T02:30:46.987Z,13.98
2023-05-05T02:35:53.033Z,12.63
2023-05-05T02:40:59.408Z,13.75
2023-05-05T02:46:09.220Z,13.60
2023-05-05T02:51:13.340Z,12.52
2023-05-05T02:56:34.952Z,13.10
2023-05-05T03:01:49.547Z,14.43
2023-05-05T03:06:55.244Z,13.10
2023-05-05T03:12:05.776Z,14.32
2023-05-05T03:17:15.875Z,12.88
2023-05-05T03:22:15.878Z,15.60
2023-05-05T03:27:29.057Z,13.73
2023-05-05T03:32:41.096Z,13.93
2023-05-05T03:37:43.714Z,13.60
2023-05-05T03:42:43.720Z,14.52
2023-05-05T03:47:42.704Z,15.40
2023-05-05T03:52:54.828Z,15.20
2023-05-05T03:57:59.562Z,16.30
2023-05-05T04:03:05.425Z,15.48
2023-05-05T04:08:07.770Z,15.10
2023-05-05T04:13:42.842Z,15.60
2023-05-05T04:18:43.352Z,15.32
2023-05-05T04:23:46.807Z,14.85
2023-05-05T04:28:46.247Z,15.43
2023-05-05T04:34:07.729Z,15.55
2023-05-05T04:39:12.208Z,15.93
2023-05-05T04:44:16.084Z,15.38
2023-05-05T04:49:15.553Z,14.27
2023-05-05T04:54:20.977Z,16.98
2023-05-05T04:59:20.079Z,14.25
2023-05-05T05:04:26.666Z,15.60
2023-05-05T05:09:35.383Z,15.40
2023-05-05T05:14:52.610Z,14.45
2023-05-05T05:25:18.168Z,14.70
2023-05-05T05:30:18.601Z,14.45
2023-05-05T05:35:25.273Z,14.63
2023-05-05T05:40:31.761Z,14.15
2023-05-05T05:45:56.083Z,14.13
2023-05-05T05:51:37.201Z,14.73
2023-05-05T05:56:45.626Z,14.88
2023-05-05T06:01:54.424Z,14.38
2023-05-05T06:07:07.817Z,13.30
2023-05-05T06:12:18.167Z,14.32
2023-05-05T06:17:20.206Z,14.57
2023-05-05T06:22:38.288Z,13.70
2023-05-05T06:27:50.655Z,13.02
2023-05-05T06:32:55.228Z,14.40
2023-05-05T06:38:35.046Z,14.73
2023-05-05T06:43:37.549Z,13.95
2023-05-05T06:48:47.133Z,14.20
2023-05-05T06:53:54.165Z,13.10
2023-05-05T06:59:03.632Z,13.00
2023-05-05T07:04:18.517Z,14.07
2023-05-05T07:09:20.829Z,12.95
2023-05-05T07:14:21.437Z,13.45
2023-05-05T07:19:24.749Z,13.00
2023-05-05T07:24:36.165Z,13.13
2023-05-05T07:29:52.600Z,12.45
2023-05-05T07:45:47.648Z,9.93
2023-05-05T07:50:49.396Z,9.00
2023-05-05T07:55:53.987Z,9.95
2023-05-05T08:01:01.529Z,9.10
2023-05-05T08:06:37.637Z,10.52
2023-05-05T08:11:43.490Z,10.40
2023-05-05T08:16:42.619Z,10.38
2023-05-05T08:21:54.604Z,10.57
2023-05-05T08:27:03.971Z,10.40
2023-05-05T08:32:09.249Z,10.55
2023-05-05T08:37:18.375Z,10.63
2023-05-05T08:42:32.810Z,10.88
2023-05-05T08:53:54.200Z,10.65
2023-05-05T09:05:07.206Z,12.13
2023-05-05T09:10:12.676Z,11.38
2023-05-05T09:15:51.137Z,11.18
2023-05-05T09:20:57.515Z,11.60
2023-05-05T09:32:09.431Z,10.20
2023-05-05T09:37:15.750Z,11.73
2023-05-05T09:42:31.589Z,10.18
2023-05-05T09:47:59.227Z,11.10
2023-05-05T09:53:24.460Z,12.13
2023-05-05T09:58:36.203Z,11.90
2023-05-05T10:03:52.532Z,11.43
2023-05-05T10:09:02.395Z,11.57
2023-05-05T10:14:04.770Z,11.07
2023-05-05T10:19:17.426Z,10.65
2023-05-05T10:24:36.668Z,11.00
2023-05-05T10:29:49.830Z,10.43
2023-05-05T10:34:58.886Z,9.35
2023-05-05T10:40:27.478Z,10.65
2023-05-05T10:45:39.749Z,9.57
2023-05-05T10:50:42.413Z,9.48
2023-05-05T11:01:46.683Z,9.43
2023-05-05T11:12:06.519Z,9.45
2023-05-05T11:17:09.211Z,7.83
2023-05-05T11:22:38.761Z,8.65
2023-05-05T11:28:02.171Z,8.30
2023-05-05T11:33:26.673Z,7.32
2023-05-05T11:38:49.533Z,8.80
2023-05-05T11:44:28.720Z,8.40
2023-05-05T11:49:54.481Z,7.85
2023-05-05T11:55:27.662Z,7.88
2023-05-05T12:00:38.648Z,7.80
2023-05-05T12:11:11.223Z,7.07
2023-05-05T12:16:13.503Z,7.90
2023-05-05T12:21:46.782Z,7.03
2023-05-05T12:27:20.561Z,8.50
2023-05-05T12:57:33.314Z,7.45
2023-05-05T13:03:04.972Z,7.28
2023-05-05T13:08:26.510Z,6.95
2023-05-05T13:13:41.900Z,6.22
2023-05-05T13:19:08.558Z,5.25
2023-05-05T13:24:28.738Z,5.60
2023-05-05T13:29:46.720Z,5.30
2023-05-05T13:35:07.442Z,5.32
2023-05-05T13:40:08.912Z,4.80
2023-05-05T13:45:12.641Z,4.65
2023-05-05T13:50:24.778Z,4.57
2023-05-05T13:55:23.582Z,4.63
2023-05-05T14:00:28.982Z,4.97
2023-05-05T14:05:35.185Z,4.60
2023-05-05T14:10:38.184Z,4.40
2023-05-05T14:15:39.245Z,3.70
2023-05-05T14:20:41.935Z,3.95
2023-05-05T14:25:51.030Z,4.03
2023-05-05T14:30:54.153Z,4.20
2023-05-05T14:41:07.913Z,3.70
2023-05-05T14:46:09.265Z,4.18
2023-05-05T14:51:08.026Z,3.03
2023-05-05T14:56:09.800Z,3.25
2023-05-05T15:01:11.052Z,4.18
2023-05-05T15:06:15.847Z,4.18
2023-05-05T15:11:15.100Z,4.07
2023-05-05T15:16:15.755Z,4.50
2023-05-05T15:21:45.436Z,3.80
2023-05-05T15:26:49.474Z,4.45
2023-05-05T15:31:53.261Z,4.18
2023-05-05T15:36:52.023Z,3.90
2023-05-05T15:41:53.944Z,4.63
2023-05-05T15:46:53.198Z,4.50
2023-05-05T15:51:54.757Z,4.43
2023-05-05T15:57:15.066Z,4.78
2023-05-05T16:02:13.159Z,6.00
2023-05-05T16:07:36.960Z,5.30
2023-05-05T16:20:20.891Z,4.40
2023-05-05T16:37:22.547Z,5.70
2023-05-05T16:53:53.256Z,7.85
2023-05-05T17:04:19.650Z,8.05
2023-05-05T17:09:43.095Z,7.45
2023-05-05T17:15:05.150Z,7.00
2023-05-05T17:25:46.522Z,6.57
2023-05-05T17:30:45.657Z,7.43
2023-05-05T17:35:49.297Z,8.00
2023-05-05T17:45:48.165Z,7.63
2023-05-05T17:52:13.952Z,6.43
2023-05-05T17:58:27.198Z,6.28
2023-05-05T18:03:15.996Z,6.70
2023-05-05T18:08:15.555Z,6.57
2023-05-05T18:13:28.983Z,6.28
2023-05-05T18:18:35.099Z,6.90
2023-05-05T18:23:39.334Z,7.72
2023-05-05T18:28:43.441Z,7.07
2023-05-05T18:51:43.551Z,7.05
2023-05-05T18:57:26.940Z,6.85
2023-05-05T19:02:45.479Z,7.33
2023-05-05T19:14:29.986Z,6.65
2023-05-05T19:20:06.607Z,6.82
2023-05-05T19:25:38.886Z,8.35
2023-05-05T19:31:01.489Z,8.18
2023-05-05T19:36:32.774Z,8.88
2023-05-05T19:46:57.985Z,8.95
2023-05-05T19:52:02.235Z,9.80
2023-05-05T20:08:37.350Z,8.25
2023-05-05T20:13:45.284Z,8.90
2023-05-05T20:18:57.292Z,8.75
2023-05-05T20:24:08.923Z,8.10
2023-05-05T20:29:20.507Z,7.93
2023-05-05T20:34:41.334Z,8.25
2023-05-05T20:40:03.164Z,8.30
2023-05-05T20:51:07.941Z,7.18
2023-05-05T20:56:19.256Z,8.60
2023-05-05T21:01:35.998Z,8.30
2023-05-05T21:06:51.218Z,9.32
2023-05-05T21:12:24.038Z,8.80
2023-05-05T21:17:46.445Z,9.25
2023-05-05T21:22:57.717Z,8.73
2023-05-05T21:28:08.013Z,9.30
2023-05-05T21:33:09.857Z,9.75
2023-05-05T21:38:15.900Z,9.80
2023-05-05T21:43:28.193Z,9.25
2023-05-05T21:48:31.545Z,9.15
2023-05-05T21:53:43.572Z,8.85
2023-05-05T21:58:47.888Z,9.50
2023-05-05T22:03:50.226Z,9.52
2023-05-05T22:09:09.229Z,9.13
2023-05-05T22:14:11.330Z,9.90
2023-05-05T22:19:22.679Z,10.65
2023-05-05T22:24:44.200Z,10.20
2023-05-05T22:30:13.887Z,10.75
2023-05-05T22:35:30.040Z,9.35
2023-05-05T22:40:38.914Z,9.55
2023-05-05T22:45:44.327Z,9.10
2023-05-05T22:50:54.888Z,9.00
2023-05-05T23:01:15.481Z,9.38
2023-05-05T23:06:19.237Z,9.90
2023-05-05T23:11:23.053Z,9.18
2023-05-05T23:16:33.527Z,9.18
2023-05-05T23:21:45.492Z,9.93
2023-05-05T23:26:56.903Z,10.20
2023-05-05T23:32:09.559Z,9.93
2023-05-05T23:37:39.213Z,9.93
2023-05-05T23:42:45.144Z,10.63
2023-05-05T23:47:55.836Z,9.95
2023-05-05T23:52:56.060Z,10.93
2023-05-05T23:58:18.775Z,11.27
